createdAt,value
2018-02-18T10:36:33.150Z,30.17
2018-02-18T10:39:00.095Z,37.03
2018-02-18T10:41:27.946Z,25.92
2018-02-18T10:43:54.620Z,27.00
2018-02-18T10:46:21.404Z,39.00
2018-02-18T10:48:48.270Z,30.65
2018-02-18T10:51:15.302Z,21.55
2018-02-18T10:53:42.426Z,33.47
2018-02-18T10:56:12.593Z,24.73
2018-02-18T10:58:39.266Z,22.65
2018-02-18T11:01:05.960Z,25.65
2018-02-18T11:06:11.279Z,17.20
2018-02-18T11:08:38.691Z,23.60
2018-02-18T11:11:05.366Z,21.67
2018-02-18T11:38:51.418Z,19.03
2018-02-18T11:41:18.188Z,23.00
2018-02-18T11:43:44.880Z,20.03
2018-02-18T11:46:12.388Z,21.97
2018-02-18T11:48:39.221Z,24.63
2018-02-18T11:51:05.936Z,27.47
2018-02-18T11:53:32.640Z,20.03
2018-02-18T11:55:59.532Z,16.00
2018-02-18T11:58:26.393Z,18.83
2018-02-18T12:00:53.125Z,20.50
2018-02-18T12:03:20.107Z,17.93
2018-02-18T12:05:46.801Z,17.33
2018-02-18T12:08:13.585Z,18.27
2018-02-18T12:10:41.129Z,18.50
2018-02-18T12:13:09.278Z,24.50
2018-02-18T12:15:35.948Z,17.87
2018-02-18T12:18:02.633Z,19.33
2018-02-18T12:20:29.225Z,19.57
2018-02-18T12:22:56.149Z,14.70
2018-02-18T12:25:30.393Z,17.83
2018-02-18T12:27:57.113Z,18.80
2018-02-18T12:30:23.979Z,17.23
2018-02-18T12:32:50.686Z,16.13
2018-02-18T12:35:22.470Z,18.27
2018-02-18T12:37:49.927Z,17.60
2018-02-18T12:40:17.280Z,16.30
2018-02-18T12:42:43.951Z,19.93
2018-02-18T12:47:54.085Z,14.87
2018-02-18T12:50:21.826Z,16.03
2018-02-18T12:52:48.553Z,16.03
2018-02-18T13:13:17.251Z,15.73
2018-02-18T13:15:44.812Z,14.97
2018-02-18T13:18:13.091Z,17.20
2018-02-18T13:20:41.076Z,17.30
2018-02-18T13:41:10.211Z,13.67
2018-02-18T13:43:38.619Z,16.23
2018-02-18T13:46:06.144Z,17.40
2018-02-18T13:48:35.422Z,16.97
2018-02-18T13:51:03.146Z,14.80
2018-02-18T13:53:30.768Z,14.83
2018-02-18T13:56:01.720Z,14.93
2018-02-18T13:58:30.162Z,14.63
2018-02-18T14:00:57.014Z,15.70
2018-02-18T14:03:24.441Z,15.90
2018-02-18T14:05:51.241Z,14.17
2018-02-18T14:08:18.681Z,17.27
2018-02-18T14:10:45.706Z,16.83
2018-02-18T14:13:12.898Z,16.83
2018-02-18T14:15:39.608Z,16.67
2018-02-18T14:18:07.999Z,19.27
2018-02-18T14:20:35.380Z,16.73
2018-02-18T14:23:02.786Z,17.50
2018-02-18T14:25:29.437Z,16.50
2018-02-18T14:27:57.682Z,16.07
2018-02-18T14:30:24.453Z,18.07
2018-02-18T14:32:52.383Z,15.20
2018-02-18T14:35:19.211Z,16.87
2018-02-18T14:37:47.059Z,15.73
2018-02-18T14:40:14.885Z,15.20
2018-02-18T14:43:00.407Z,13.97
2018-02-18T14:45:46.228Z,15.33
2018-02-18T14:48:32.160Z,13.97
2018-02-18T15:09:00.298Z,16.80
2018-02-18T15:11:27.617Z,18.50
2018-02-18T15:13:58.246Z,17.73
2018-02-18T15:16:24.889Z,18.23
2018-02-18T15:18:51.795Z,18.30
2018-02-18T15:21:19.166Z,19.87
2018-02-18T15:23:46.032Z,19.87
2018-02-18T15:26:12.654Z,24.13
2018-02-18T15:46:40.455Z,23.80
2018-02-18T15:49:07.514Z,24.13
2018-02-18T15:51:34.198Z,23.70
2018-02-18T16:12:01.824Z,24.17
2018-02-18T16:14:29.278Z,23.93
2018-02-18T16:16:56.136Z,23.57
2018-02-18T16:19:23.644Z,23.80
2018-02-18T16:21:50.686Z,18.00
2018-02-18T16:42:18.627Z,25.07
2018-02-18T16:44:46.090Z,28.00
2018-02-18T16:47:13.594Z,22.33
2018-02-18T16:49:40.789Z,24.67
2018-02-18T16:52:08.462Z,27.00
2018-02-18T16:54:36.068Z,24.60
2018-02-18T16:57:06.824Z,25.33
2018-02-18T16:59:34.027Z,30.08
2018-02-18T17:02:02.670Z,23.10
2018-02-18T17:04:30.886Z,28.63
2018-02-18T17:06:59.967Z,25.42
2018-02-18T17:09:29.839Z,24.08
2018-02-18T17:12:00.265Z,25.37
2018-02-18T17:14:29.460Z,27.70
2018-02-18T17:16:59.394Z,24.70
2018-02-18T17:19:27.741Z,24.75
2018-02-18T17:21:56.318Z,27.62
2018-02-18T17:24:25.028Z,26.02
2018-02-18T17:26:53.521Z,27.25
2018-02-18T17:29:22.057Z,28.52
2018-02-18T17:31:51.250Z,25.75
2018-02-18T17:34:19.881Z,24.20
2018-02-18T17:36:48.466Z,23.25
2018-02-18T17:39:16.964Z,24.85
2018-02-18T17:41:45.541Z,22.40
2018-02-18T17:44:14.210Z,23.17
2018-02-18T17:46:43.160Z,25.67
2018-02-18T17:49:11.666Z,27.87
2018-02-18T17:51:40.290Z,24.77
2018-02-18T17:54:08.853Z,28.45
2018-02-18T17:56:37.501Z,21.35
2018-02-18T17:59:07.239Z,24.95
2018-02-18T22:30:03.531Z,32.13
